Rockenbach Airport

Jump to: basic info | weather | runways | comments

Related pages: nearby airports | nearby navaids | notams | map

Basic information (top)

Codes: LL97
Location: lon 42.338902, lat -88.084801, elev 800 ft / 244 m msl
Status: small_airport

Weather (top)

Current conditions for Waukegan Regional Airport 11nm (20km) ENE (rec'd 2014/12/21 16:55Z):

KUGN 211655Z 17010KT 7SM OVC037 01/M02 A3015 RMK AO2 SLP222 T00111022

Airport forecast for Kenosha Regional Airport 17nm (31km) NNE (rec'd 2014/12/21 12:45Z):

TAF KENW 211143Z 2112/2212 17007KT 6SM -FZDZSN OVC015 
      TEMPO 2112/2115 5SM BR 
     FM211500 18008KT 6SM BR OVC012 
     FM211700 18011KT P6SM OVC025 
     FM212100 17011KT P6SM OVC030 
     FM220100 17011KT P6SM OVC025

Runways (top)

N/S: 2,000 x 100 ft (610 x 30 m) — grass — not lighted

Latest comments (top)

No comments yet for Rockenbach Airport

More... (top)

See also NOTAMs and nearby airports and navaids, or visit the Rockenbach Airport page at the main OurAirports website..